Time;durP1;ratioP1;P1;durP2;ratioP2;P2;SDS_P1;SDS_P2;PMS_P1;PMS_P2;Temp;Humidity;BMP_temperature;BMP_pressure;BME280_temperature;BME280_humidity;BME280_pressure;Samples;Min_cycle;Max_cycle;Signal;HPM_P1;HPM_P2
2022/11/30 00:00:52;;;;;;;39.50;16.57;;;;;;;6.75;89.09;100932.06;4988086;28;20311;-65
2022/11/30 00:03:19;;;;;;;44.97;17.63;;;;;;;6.68;89.41;100932.66;4988547;28;20201;-66
2022/11/30 00:05:45;;;;;;;40.90;16.37;;;;;;;6.60;89.58;100937.66;4992440;28;20192;-65
2022/11/30 00:08:12;;;;;;;38.97;16.53;;;;;;;6.54;89.86;100934.78;4987514;28;20201;-65
2022/11/30 00:10:39;;;;;;;44.03;17.47;;;;;;;6.49;89.95;100941.63;4974770;28;20224;-66
2022/11/30 00:13:06;;;;;;;46.87;17.10;;;;;;;6.42;90.46;100936.06;4992238;28;20315;-65
2022/11/30 00:15:33;;;;;;;44.10;17.93;;;;;;;6.35;90.29;100928.75;4991621;28;20696;-65
2022/11/30 00:17:59;;;;;;;46.60;19.23;;;;;;;6.27;90.95;100926.72;4992506;28;20287;-65
2022/11/30 00:20:28;;;;;;;43.97;18.33;;;;;;;6.26;90.95;100934.56;4974598;28;20652;-65
2022/11/30 00:22:56;;;;;;;46.77;19.30;;;;;;;6.24;91.47;100925.72;4991666;28;20208;-65
2022/11/30 00:25:23;;;;;;;45.07;18.10;;;;;;;6.16;91.51;100914.88;4987733;28;20260;-65
2022/11/30 00:27:50;;;;;;;43.30;17.50;;;;;;;6.24;91.85;100934.50;4991562;28;20220;-65
2022/11/30 00:30:16;;;;;;;45.17;18.93;;;;;;;6.23;92.03;100937.97;4990068;28;20276;-65
2022/11/30 00:32:42;;;;;;;47.60;18.33;;;;;;;6.23;92.08;100930.06;4990931;28;20288;-67
2022/11/30 00:35:09;;;;;;;46.83;18.77;;;;;;;6.23;92.12;100930.06;4991412;28;20205;-65
2022/11/30 00:37:35;;;;;;;49.47;20.27;;;;;;;6.33;92.40;100928.69;4991526;28;20312;-65
2022/11/30 00:40:02;;;;;;;55.80;19.53;;;;;;;6.36;92.27;100923.53;4990259;28;20272;-65
2022/11/30 00:42:28;;;;;;;55.77;18.53;;;;;;;6.43;92.06;100930.88;4977706;28;20201;-65
2022/11/30 00:44:54;;;;;;;46.00;17.90;;;;;;;6.36;92.01;100930.53;4990915;28;20207;-65
2022/11/30 00:47:21;;;;;;;45.73;18.63;;;;;;;6.35;92.26;100932.28;4992195;28;20276;-65
2022/11/30 00:49:47;;;;;;;51.43;18.13;;;;;;;6.31;92.30;100930.38;4990886;28;20228;-65
2022/11/30 00:52:13;;;;;;;48.27;17.90;;;;;;;6.33;92.42;100935.69;4990539;28;20795;-65
2022/11/30 00:54:40;;;;;;;54.07;19.10;;;;;;;6.32;92.38;100939.16;4991890;28;20252;-65
2022/11/30 00:57:06;;;;;;;58.33;20.60;;;;;;;6.31;92.37;100943.50;4990999;28;20655;-65
2022/11/30 00:59:32;;;;;;;44.43;17.97;;;;;;;6.32;92.54;100933.88;4990631;28;20223;-65
2022/11/30 01:01:59;;;;;;;46.47;18.30;;;;;;;6.33;92.33;100933.06;4990367;28;20319;-65
2022/11/30 01:04:25;;;;;;;41.90;17.40;;;;;;;6.34;92.33;100922.59;4989763;28;20233;-65
2022/11/30 01:06:51;;;;;;;52.63;18.13;;;;;;;6.36;92.45;100927.91;4990883;28;20267;-65
2022/11/30 01:09:18;;;;;;;51.53;18.43;;;;;;;6.29;92.49;100932.03;4982117;28;20230;-65
2022/11/30 01:11:44;;;;;;;45.67;17.80;;;;;;;6.31;92.45;100933.00;4990011;28;20299;-65
2022/11/30 01:14:10;;;;;;;51.63;19.07;;;;;;;6.29;92.60;100932.03;4975421;28;20207;-65
2022/11/30 01:16:37;;;;;;;51.00;18.70;;;;;;;6.36;92.51;100927.91;4990103;28;20217;-65
2022/11/30 01:19:03;;;;;;;42.97;17.90;;;;;;;6.40;92.69;100935.06;4990409;28;20292;-65
2022/11/30 01:21:29;;;;;;;41.57;18.70;;;;;;;6.48;92.25;100939.81;4990385;28;20367;-65
2022/11/30 01:23:56;;;;;;;49.33;18.20;;;;;;;6.45;92.14;100930.91;4990937;28;20201;-65
2022/11/30 01:26:22;;;;;;;44.97;16.47;;;;;;;6.38;92.53;100939.38;4990129;28;20284;-65
2022/11/30 01:28:51;;;;;;;42.10;16.57;;;;;;;6.33;92.47;100930.41;4991109;28;20204;-66
2022/11/30 01:31:19;;;;;;;46.23;17.63;;;;;;;6.31;92.55;100935.63;4990413;28;20549;-65
2022/11/30 01:33:53;;;;;;;42.03;16.63;;;;;;;6.24;92.93;100931.84;4973578;28;20203;-65
2022/11/30 01:36:24;;;;;;;45.73;16.73;;;;;;;6.33;92.69;100933.06;4982830;28;20228;-65
2022/11/30 01:38:54;;;;;;;49.73;17.50;;;;;;;6.34;92.77;100932.22;4990309;28;20620;-67
2022/11/30 01:41:26;;;;;;;40.93;16.93;;;;;;;6.24;92.85;100923.06;4989109;28;20248;-65
2022/11/30 01:44:16;;;;;;;45.87;17.00;;;;;;;6.25;92.96;100935.38;4990174;28;20196;-65
2022/11/30 01:46:58;;;;;;;49.87;17.50;;;;;;;6.21;92.98;100936.09;4962470;28;20510;-65
2022/11/30 01:49:29;;;;;;;48.40;16.60;;;;;;;6.18;93.42;100931.63;4986762;28;20282;-65
2022/11/30 01:52:04;;;;;;;47.17;16.37;;;;;;;6.18;93.36;100934.25;4989476;28;20227;-64
2022/11/30 01:54:36;;;;;;;44.60;16.10;;;;;;;6.12;93.69;100933.13;4990514;28;20283;-65
2022/11/30 01:57:33;;;;;;;44.10;16.50;;;;;;;6.15;93.59;100938.50;4989785;28;20219;-65
2022/11/30 02:00:02;;;;;;;43.67;16.27;;;;;;;6.14;93.90;100932.34;4965756;28;20309;-65
2022/11/30 02:03:03;;;;;;;44.67;17.40;;;;;;;6.13;93.98;100933.19;4990217;28;20204;-65
2022/11/30 02:05:31;;;;;;;44.60;16.43;;;;;;;6.14;93.84;100928.81;4986910;28;20262;-64
2022/11/30 02:07:58;;;;;;;43.07;17.10;;;;;;;6.15;93.96;100927.97;4989749;28;20673;-64
2022/11/30 02:10:31;;;;;;;41.47;17.00;;;;;;;6.38;93.54;100923.59;4989326;28;20334;-65
2022/11/30 02:13:08;;;;;;;50.67;18.23;;;;;;;6.45;93.00;100937.06;4990624;28;20197;-65
2022/11/30 02:15:58;;;;;;;51.80;17.67;;;;;;;6.37;92.92;100934.97;4990503;28;20300;-65
2022/11/30 02:18:48;;;;;;;52.87;18.80;;;;;;;6.41;92.70;100942.16;4984011;28;20245;-65
2022/11/30 02:21:28;;;;;;;52.33;18.43;;;;;;;6.55;91.81;100935.69;4987729;28;20291;-65
2022/11/30 02:24:15;;;;;;;46.43;17.83;;;;;;;6.55;91.41;100933.06;4988495;28;20578;-64
2022/11/30 02:26:50;;;;;;;47.80;18.33;;;;;;;6.58;91.44;100933.16;4989171;28;20286;-65
2022/11/30 02:29:23;;;;;;;49.10;18.20;;;;;;;6.57;91.24;100934.00;4983119;28;20207;-65
2022/11/30 02:32:08;;;;;;;53.30;19.47;;;;;;;6.57;91.25;100932.28;4988447;28;20224;-65
2022/11/30 02:34:36;;;;;;;50.13;18.07;;;;;;;6.49;91.16;100931.09;4987662;28;20303;-65
2022/11/30 02:37:06;;;;;;;51.23;18.70;;;;;;;6.52;91.03;100928.56;4989939;28;20311;-65
2022/11/30 02:39:32;;;;;;;45.63;17.13;;;;;;;6.52;91.68;100941.72;4988572;28;20200;-65
2022/11/30 02:41:59;;;;;;;46.10;17.60;;;;;;;6.48;91.57;100933.66;4988447;28;20215;-64
2022/11/30 02:44:27;;;;;;;51.17;18.30;;;;;;;6.51;91.71;100939.03;4988815;28;20227;-64
2022/11/30 02:47:06;;;;;;;54.07;18.77;;;;;;;6.52;91.89;100940.84;4988724;28;20392;-65
2022/11/30 02:49:59;;;;;;;48.97;18.40;;;;;;;6.70;90.90;100938.88;4992477;28;20203;-64
2022/11/30 02:52:27;;;;;;;50.87;17.70;;;;;;;6.64;91.19;100941.28;4987661;28;20224;-65
2022/11/30 02:55:02;;;;;;;48.87;18.20;;;;;;;6.60;91.22;100940.28;4987748;28;20209;-64
2022/11/30 02:57:28;;;;;;;49.03;17.77;;;;;;;6.56;91.21;100941.00;4988913;28;20304;-65
2022/11/30 02:59:56;;;;;;;52.73;18.87;;;;;;;6.61;91.20;100943.81;4986834;28;20278;-65
2022/11/30 03:02:22;;;;;;;43.27;17.27;;;;;;;6.55;91.47;100949.75;4989022;28;20196;-65
2022/11/30 03:04:48;;;;;;;46.50;17.10;;;;;;;6.49;91.72;100945.97;4983864;28;20621;-65
2022/11/30 03:07:15;;;;;;;45.10;17.60;;;;;;;6.48;91.85;100955.59;4981704;28;20288;-65
2022/11/30 03:09:41;;;;;;;52.37;17.23;;;;;;;6.46;91.83;100946.75;4983165;28;20204;-65
2022/11/30 03:12:07;;;;;;;49.07;17.10;;;;;;;6.47;92.32;100955.56;4983756;28;20291;-65
2022/11/30 03:14:34;;;;;;;47.33;17.60;;;;;;;6.45;92.29;100954.59;4985720;28;20196;-65
2022/11/30 03:17:00;;;;;;;50.57;17.30;;;;;;;6.44;92.46;100958.97;4974774;28;20308;-65
2022/11/30 03:19:26;;;;;;;47.50;17.93;;;;;;;6.44;92.58;100961.59;4980083;28;20209;-65
2022/11/30 03:21:53;;;;;;;48.43;16.80;;;;;;;6.34;92.58;100941.00;4988834;28;20255;-65
2022/11/30 03:24:19;;;;;;;43.30;17.70;;;;;;;6.46;92.77;100966.91;4978018;28;20248;-65
2022/11/30 03:26:45;;;;;;;49.97;18.33;;;;;;;6.46;92.94;100961.66;4978648;28;20248;-65
2022/11/30 03:29:12;;;;;;;47.40;17.57;;;;;;;6.46;93.22;100957.28;4980771;28;20285;-65
2022/11/30 03:31:38;;;;;;;50.20;17.57;;;;;;;6.46;93.13;100959.91;4988229;28;20227;-65
2022/11/30 03:34:04;;;;;;;48.67;18.97;;;;;;;6.42;93.20;100960.63;4980725;28;20248;-65
2022/11/30 03:36:31;;;;;;;54.23;18.13;;;;;;;6.41;93.25;100955.31;4981628;28;20284;-64
2022/11/30 03:38:57;;;;;;;50.70;17.90;;;;;;;6.44;93.11;100965.97;4982263;28;20757;-64
2022/11/30 03:41:24;;;;;;;53.50;19.07;;;;;;;6.48;93.31;100963.50;4986666;28;20364;-64
2022/11/30 03:43:50;;;;;;;54.93;19.87;;;;;;;6.56;93.01;100964.69;4983815;28;20206;-64
2022/11/30 03:46:16;;;;;;;54.97;17.57;;;;;;;6.63;92.72;100963.19;4977505;28;20293;-64
2022/11/30 03:48:43;;;;;;;48.47;18.60;;;;;;;6.67;92.02;100957.19;4974576;28;20194;-64
2022/11/30 03:51:11;;;;;;;52.03;18.77;;;;;;;6.75;91.92;100965.38;4986587;28;20751;-65
2022/11/30 03:53:38;;;;;;;47.03;18.20;;;;;;;6.75;91.81;100962.75;4970751;28;20193;-64
2022/11/30 03:56:08;;;;;;;48.97;18.20;;;;;;;6.74;92.22;100961.84;4979985;28;20584;-65
2022/11/30 03:58:34;;;;;;;58.57;17.77;;;;;;;6.74;91.99;100960.94;4978053;28;20705;-64
2022/11/30 04:01:03;;;;;;;48.90;18.20;;;;;;;6.68;92.12;100960.72;4985266;28;20237;-65
2022/11/30 04:03:30;;;;;;;41.03;16.53;;;;;;;6.64;92.04;100953.56;4987672;28;20207;-64
2022/11/30 04:05:58;;;;;;;49.37;17.33;;;;;;;6.69;92.21;100959.88;4979242;28;20647;-64
2022/11/30 04:08:25;;;;;;;47.27;16.43;;;;;;;6.79;91.91;100959.38;4986227;28;20743;-65
2022/11/30 04:10:53;;;;;;;46.27;17.00;;;;;;;6.75;92.11;100962.75;4983362;28;20310;-64
2022/11/30 04:13:21;;;;;;;43.90;16.77;;;;;;;6.66;92.08;100963.31;4984647;28;20200;-64
2022/11/30 04:15:48;;;;;;;41.40;16.23;;;;;;;6.63;92.23;100955.28;4974991;28;20288;-64
2022/11/30 04:18:16;;;;;;;44.27;17.30;;;;;;;6.51;92.34;100957.47;4982818;28;20213;-65
2022/11/30 04:20:43;;;;;;;44.97;15.30;;;;;;;6.37;92.51;100956.91;4984970;28;20584;-65
2022/11/30 04:23:10;;;;;;;47.30;17.53;;;;;;;6.36;92.64;100964.72;4985709;28;20201;-64
2022/11/30 04:25:38;;;;;;;49.57;18.03;;;;;;;6.32;93.03;100971.59;4984281;28;20284;-64
2022/11/30 04:28:04;;;;;;;50.40;17.50;;;;;;;6.30;93.48;100968.03;4981348;28;20193;-65
2022/11/30 04:30:32;;;;;;;47.47;17.40;;;;;;;6.28;93.61;100962.69;4988708;28;20232;-64
2022/11/30 04:32:58;;;;;;;49.43;18.03;;;;;;;6.26;93.92;100963.47;4984960;28;20585;-65
2022/11/30 04:35:25;;;;;;;52.17;18.90;;;;;;;6.32;93.73;100968.97;4981106;28;20260;-64
2022/11/30 04:37:51;;;;;;;46.10;16.67;;;;;;;6.31;94.23;100964.56;4982656;28;20255;-65
2022/11/30 04:40:17;;;;;;;57.97;17.83;;;;;;;6.37;94.43;100963.91;4989009;28;20254;-65
2022/11/30 04:42:44;;;;;;;48.03;18.03;;;;;;;6.38;93.83;100971.84;4978641;28;20285;-64
2022/11/30 04:45:11;;;;;;;53.00;18.33;;;;;;;6.38;93.92;100957.78;4983215;28;20283;-64
2022/11/30 04:47:37;;;;;;;55.17;18.10;;;;;;;6.44;93.79;100958.97;4989172;28;20201;-64
2022/11/30 04:50:05;;;;;;;48.87;18.63;;;;;;;6.41;93.99;100964.09;4990443;28;20279;-64
2022/11/30 04:52:32;;;;;;;51.00;17.90;;;;;;;6.55;93.63;100967.25;4980254;28;20205;-64
2022/11/30 04:54:59;;;;;;;50.13;17.50;;;;;;;6.47;93.47;100974.88;4984057;28;20208;-65
2022/11/30 04:57:26;;;;;;;48.93;17.27;;;;;;;6.42;93.69;100972.91;4990245;28;20306;-64
2022/11/30 05:02:28;;;;;;;47.47;17.10;;;;;;;6.38;93.78;100976.22;4931622;29;20216;-69
2022/11/30 05:04:54;;;;;;;50.87;17.17;;;;;;;6.36;94.13;100972.63;4938653;29;20203;-68
2022/11/30 05:07:21;;;;;;;50.40;16.07;;;;;;;6.37;94.29;100972.69;4934086;29;20298;-68
2022/11/30 05:09:47;;;;;;;47.73;16.37;;;;;;;6.39;94.20;100976.28;4933346;29;20250;-70
2022/11/30 05:12:13;;;;;;;41.40;15.93;;;;;;;6.45;94.44;100970.38;4951156;29;20268;-69
2022/11/30 05:14:40;;;;;;;54.37;18.20;;;;;;;6.52;94.06;100964.50;4944178;28;20285;-70
2022/11/30 05:17:06;;;;;;;50.67;17.10;;;;;;;6.69;93.59;100970.41;4950573;28;20664;-68
2022/11/30 05:19:32;;;;;;;50.23;16.40;;;;;;;6.73;93.16;100969.69;4950916;29;20194;-72
2022/11/30 05:21:59;;;;;;;48.03;17.73;;;;;;;6.80;92.55;100972.59;4951696;28;20293;-71
2022/11/30 05:24:25;;;;;;;42.80;15.97;;;;;;;6.72;92.55;100963.53;4950239;29;20253;-69
2022/11/30 05:26:51;;;;;;;46.90;16.57;;;;;;;6.70;92.76;100969.56;4951616;29;20209;-68
2022/11/30 05:29:18;;;;;;;43.00;16.60;;;;;;;6.65;92.92;100968.50;4952349;29;20309;-68
2022/11/30 05:31:44;;;;;;;45.40;16.77;;;;;;;6.56;93.11;100969.06;4949180;28;20248;-69
2022/11/30 05:34:10;;;;;;;42.63;15.83;;;;;;;6.58;93.39;100976.16;4952126;28;20295;-69
2022/11/30 05:36:37;;;;;;;45.50;15.80;;;;;;;6.58;93.31;100970.00;4951686;29;20245;-69
2022/11/30 05:39:03;;;;;;;39.73;15.27;;;;;;;6.52;93.66;100978.56;4950297;28;20222;-69
2022/11/30 05:41:30;;;;;;;41.43;15.70;;;;;;;6.45;93.72;100975.66;4947763;28;20317;-69
2022/11/30 05:43:56;;;;;;;41.90;15.93;;;;;;;6.42;93.83;100984.31;4950771;28;20202;-71
2022/11/30 05:46:23;;;;;;;35.13;14.70;;;;;;;6.43;94.09;100987.84;4952186;28;20205;-67
2022/11/30 05:48:49;;;;;;;38.87;15.67;;;;;;;6.43;94.26;100990.47;4951927;28;20202;-70
2022/11/30 05:51:17;;;;;;;39.73;14.63;;;;;;;6.42;94.57;100988.69;4953893;28;20305;-68
2022/11/30 05:53:45;;;;;;;35.87;14.20;;;;;;;6.41;94.85;100989.50;4949676;28;20205;-69
2022/11/30 05:56:17;;;;;;;33.77;13.13;;;;;;;6.43;94.97;100994.00;4951201;28;20260;-68
2022/11/30 05:58:44;;;;;;;35.03;14.07;;;;;;;6.44;94.98;100989.63;4950220;28;20246;-69
2022/11/30 06:01:19;;;;;;;39.13;14.63;;;;;;;6.46;94.99;100985.34;4959363;28;20280;-69
2022/11/30 06:03:46;;;;;;;40.77;14.80;;;;;;;6.53;94.63;100992.63;4969641;28;20278;-70
2022/11/30 06:06:13;;;;;;;38.53;15.10;;;;;;;6.52;94.97;100993.47;4970935;28;20296;-69
2022/11/30 06:08:39;;;;;;;40.03;15.27;;;;;;;6.57;94.76;100989.28;4970775;28;20256;-69
2022/11/30 06:11:06;;;;;;;43.33;15.13;;;;;;;6.56;94.40;100993.63;4969617;28;20279;-66
2022/11/30 06:13:32;;;;;;;44.40;15.93;;;;;;;6.52;94.81;100997.00;4969884;28;20277;-71
2022/11/30 06:16:02;;;;;;;45.57;16.03;;;;;;;6.48;94.74;100992.44;4965878;28;20690;-69
2022/11/30 06:18:28;;;;;;;41.33;14.83;;;;;;;6.48;94.82;100989.81;4968802;28;20668;-68
2022/11/30 06:21:00;;;;;;;32.97;14.30;;;;;;;6.44;94.52;100989.63;4968654;28;20221;-71
2022/11/30 06:23:26;;;;;;;28.10;13.13;;;;;;;6.47;94.61;100993.28;4966642;28;20290;-69
2022/11/30 06:25:52;;;;;;;33.90;14.13;;;;;;;6.46;94.70;100987.97;4969247;28;20204;-70
2022/11/30 06:28:19;;;;;;;38.80;14.23;;;;;;;6.43;94.58;100996.63;4969326;28;20283;-71
2022/11/30 06:30:45;;;;;;;34.47;13.27;;;;;;;6.52;94.51;100991.72;4968531;28;20330;-69
2022/11/30 06:33:12;;;;;;;31.87;12.57;;;;;;;6.67;94.39;100998.41;4962906;28;20301;-68
2022/11/30 06:35:45;;;;;;;27.60;12.10;;;;;;;6.85;93.11;101002.66;4968606;28;20193;-69
2022/11/30 06:38:12;;;;;;;30.03;12.77;;;;;;;6.78;93.05;101005.88;4965990;28;20227;-68
2022/11/30 06:40:38;;;;;;;28.07;11.83;;;;;;;6.77;93.27;100997.91;4969062;28;20276;-68
2022/11/30 06:43:05;;;;;;;30.60;12.20;;;;;;;6.79;93.15;100997.13;4967806;28;20288;-68
2022/11/30 06:45:31;;;;;;;24.00;11.03;;;;;;;6.77;93.09;101004.06;4967468;28;20205;-68
2022/11/30 06:47:58;;;;;;;30.20;12.27;;;;;;;6.73;93.21;101001.28;4964972;28;20617;-68
2022/11/30 06:50:24;;;;;;;29.97;12.03;;;;;;;6.77;93.10;101013.72;4968861;28;20237;-68
2022/11/30 06:52:50;;;;;;;24.70;10.50;;;;;;;6.84;92.54;101011.41;4966771;28;20205;-68
2022/11/30 06:55:17;;;;;;;26.53;11.03;;;;;;;6.81;92.58;101010.38;4966284;28;20289;-68
2022/11/30 06:57:43;;;;;;;27.27;11.23;;;;;;;6.81;92.11;101008.66;4961955;28;20217;-69
2022/11/30 07:00:11;;;;;;;24.73;10.60;;;;;;;6.80;92.37;101008.56;4953072;28;20257;-68
2022/11/30 07:02:37;;;;;;;22.00;10.43;;;;;;;6.67;92.30;101007.19;4969087;28;20234;-69
2022/11/30 07:05:04;;;;;;;24.20;10.87;;;;;;;6.71;92.75;101016.13;4970340;28;20835;-69
2022/11/30 07:07:31;;;;;;;22.80;10.77;;;;;;;6.66;92.58;101017.66;4967025;28;20205;-70
2022/11/30 07:09:58;;;;;;;26.00;10.63;;;;;;;6.65;93.05;101021.13;4970475;28;20289;-66
2022/11/30 07:12:24;;;;;;;23.47;10.67;;;;;;;6.64;93.14;101014.09;4970368;28;20212;-69
2022/11/30 07:14:54;;;;;;;24.60;11.20;;;;;;;6.62;93.15;101014.03;4968869;28;20252;-69
2022/11/30 07:17:21;;;;;;;25.13;11.47;;;;;;;6.63;93.44;101023.72;4968545;28;20199;-69
2022/11/30 07:19:47;;;;;;;24.20;10.87;;;;;;;6.65;93.51;101019.41;4968653;28;20311;-66
2022/11/30 07:22:13;;;;;;;26.17;11.00;;;;;;;6.66;93.53;101026.47;4967782;28;20223;-69
2022/11/30 07:27:25;;;;;;;24.93;11.30;;;;;;;6.76;93.59;101011.91;4969568;28;20740;-68
2022/11/30 07:29:51;;;;;;;27.50;11.60;;;;;;;6.48;93.27;100965.25;4965581;28;20216;-68
2022/11/30 07:32:18;;;;;;;30.00;11.83;;;;;;;6.80;93.26;101014.72;4967624;28;20232;-67
2022/11/30 07:34:45;;;;;;;28.17;12.00;;;;;;;6.86;93.34;101025.53;4968794;28;20673;-68
2022/11/30 07:37:12;;;;;;;25.67;11.30;;;;;;;6.85;93.44;101031.63;4968436;28;20197;-68
2022/11/30 07:39:38;;;;;;;28.57;12.70;;;;;;;6.85;93.31;101020.19;4969205;28;20221;-68
2022/11/30 07:42:04;;;;;;;27.77;11.50;;;;;;;6.90;93.49;101021.25;4967905;28;20865;-69
2022/11/30 07:44:31;;;;;;;24.33;11.03;;;;;;;6.97;93.32;101027.66;4969174;28;20209;-68
2022/11/30 07:46:59;;;;;;;26.23;11.20;;;;;;;7.03;93.29;101031.41;4967478;28;20654;-66
2022/11/30 07:49:26;;;;;;;25.40;11.57;;;;;;;7.01;93.09;101025.19;4969840;28;20284;-72
2022/11/30 07:51:52;;;;;;;27.00;12.47;;;;;;;7.02;93.32;101019.09;4968689;28;20798;-70
2022/11/30 07:54:18;;;;;;;25.87;12.10;;;;;;;7.13;93.18;101032.66;4965968;28;20722;-70
2022/11/30 07:56:47;;;;;;;25.80;11.97;;;;;;;7.15;93.58;101034.50;4967537;28;21081;-68
2022/11/30 07:59:13;;;;;;;22.53;10.97;;;;;;;7.21;93.40;101033.84;4966428;28;20225;-70
2022/11/30 08:01:39;;;;;;;26.27;11.50;;;;;;;7.17;93.56;101018.75;4966144;28;20264;-70
2022/11/30 08:04:06;;;;;;;27.47;12.47;;;;;;;7.36;93.26;101037.03;4968263;28;20566;-71
2022/11/30 08:06:32;;;;;;;25.13;11.87;;;;;;;7.46;93.09;101033.88;4967788;28;20207;-71
2022/11/30 08:09:01;;;;;;;26.20;12.47;;;;;;;7.52;92.93;101038.47;4967266;28;20611;-70
2022/11/30 08:11:31;;;;;;;27.77;12.07;;;;;;;7.58;92.47;101038.69;4967084;28;20221;-70
2022/11/30 08:13:58;;;;;;;25.80;11.43;;;;;;;7.64;91.85;101036.31;4966659;28;20203;-71
2022/11/30 08:16:27;;;;;;;25.47;11.77;;;;;;;7.67;91.47;101039.06;4969321;28;20677;-70
2022/11/30 08:18:55;;;;;;;25.90;11.90;;;;;;;7.76;90.98;101027.94;4971168;28;20572;-69
2022/11/30 08:21:22;;;;;;;27.63;12.87;;;;;;;7.79;90.65;101031.56;4970242;28;20255;-69
2022/11/30 08:23:51;;;;;;;31.27;13.07;;;;;;;7.79;90.50;101028.03;4972007;28;20295;-69
2022/11/30 08:26:19;;;;;;;27.97;12.40;;;;;;;7.83;90.90;101035.19;4970968;28;20207;-71
2022/11/30 08:28:46;;;;;;;27.20;11.83;;;;;;;7.76;90.55;101028.81;4970384;28;20734;-69
2022/11/30 08:31:19;;;;;;;26.73;12.93;;;;;;;7.83;90.57;101035.19;4970352;28;20229;-69
2022/11/30 08:33:45;;;;;;;31.40;13.43;;;;;;;7.96;90.32;101042.69;4972245;28;20462;-69
2022/11/30 08:36:15;;;;;;;30.00;13.20;;;;;;;8.01;90.06;101034.94;4970498;28;20288;-72
2022/11/30 08:38:43;;;;;;;32.30;13.57;;;;;;;8.01;89.63;101033.22;4968733;28;20231;-72
2022/11/30 08:41:12;;;;;;;26.77;11.90;;;;;;;8.06;89.50;101036.91;4971685;28;20668;-71
2022/11/30 08:43:39;;;;;;;34.00;13.40;;;;;;;8.09;89.89;101038.75;4970164;28;20294;-71
2022/11/30 08:46:07;;;;;;;26.83;11.50;;;;;;;8.09;90.06;101034.34;4971976;28;20199;-70
2022/11/30 08:48:54;;;;;;;26.40;11.67;;;;;;;8.15;90.10;101037.19;4973919;28;20216;-70
2022/11/30 08:51:38;;;;;;;29.37;12.13;;;;;;;8.33;90.33;101046.56;4966949;28;20229;-70
2022/11/30 08:54:26;;;;;;;31.57;12.83;;;;;;;8.51;89.37;101041.03;4969216;28;20741;-70
2022/11/30 08:56:52;;;;;;;22.43;10.37;;;;;;;8.63;89.41;101050.22;4971169;28;20858;-71
2022/11/30 08:59:18;;;;;;;24.73;11.67;;;;;;;8.69;88.39;101041.59;4972145;28;20296;-70
2022/11/30 09:01:45;;;;;;;24.17;11.73;;;;;;;8.77;88.81;101048.91;4971647;28;20236;-72
2022/11/30 09:04:11;;;;;;;30.97;12.57;;;;;;;8.84;88.65;101054.41;4968263;28;20629;-70
2022/11/30 09:06:38;;;;;;;28.63;12.37;;;;;;;9.00;88.47;101062.84;4954134;28;20419;-72
2022/11/30 09:09:04;;;;;;;24.13;11.70;;;;;;;9.02;88.04;101058.50;4971076;28;20299;-71
2022/11/30 09:11:32;;;;;;;24.57;11.63;;;;;;;9.08;88.17;101065.69;4972737;28;20593;-70
2022/11/30 09:14:02;;;;;;;22.57;11.47;;;;;;;9.16;87.79;101056.25;4969790;28;20256;-68
2022/11/30 09:16:29;;;;;;;23.17;11.83;;;;;;;9.28;86.82;101068.94;4970024;28;20248;-70
2022/11/30 09:18:56;;;;;;;20.80;10.53;;;;;;;9.36;86.52;101055.09;4973737;28;20303;-69
2022/11/30 09:21:23;;;;;;;19.27;10.10;;;;;;;9.32;85.44;101055.88;4970869;28;20228;-72
2022/11/30 09:23:50;;;;;;;21.03;10.70;;;;;;;9.54;85.11;101061.75;4971273;28;20238;-70
2022/11/30 09:26:19;;;;;;;19.27;10.50;;;;;;;9.58;84.82;101066.28;4970142;28;20212;-71
2022/11/30 09:28:47;;;;;;;19.53;10.17;;;;;;;9.66;84.73;101054.19;4970262;28;20209;-70
2022/11/30 09:31:16;;;;;;;19.57;10.40;;;;;;;9.86;83.40;101058.25;4971348;28;20347;-70
2022/11/30 09:33:43;;;;;;;18.60;9.80;;;;;;;10.11;81.93;101058.91;4971420;28;20202;-71
2022/11/30 09:36:15;;;;;;;19.63;10.20;;;;;;;10.08;81.90;101059.72;4968513;28;20747;-71
2022/11/30 09:38:42;;;;;;;19.57;10.53;;;;;;;9.96;82.20;101055.00;4968782;28;20712;-70
2022/11/30 09:41:33;;;;;;;23.60;10.47;;;;;;;10.02;81.55;101065.75;4969837;28;20217;-70
2022/11/30 09:44:27;;;;;;;20.07;9.90;;;;;;;10.05;82.14;101067.59;4970425;28;20196;-72
2022/11/30 09:47:00;;;;;;;17.97;9.70;;;;;;;10.04;82.25;101057.88;4972277;28;20290;-70
2022/11/30 09:49:30;;;;;;;22.83;9.83;;;;;;;9.99;82.56;101052.41;4971691;28;20685;-70
2022/11/30 09:52:02;;;;;;;18.83;9.70;;;;;;;10.01;83.03;101065.72;4968642;28;20245;-70
2022/11/30 09:54:43;;;;;;;19.77;9.80;;;;;;;10.07;82.53;101068.53;4970051;28;20212;-71
2022/11/30 09:57:09;;;;;;;16.23;8.93;;;;;;;10.16;82.41;101065.22;4969413;28;20722;-71
2022/11/30 09:59:37;;;;;;;19.13;9.77;;;;;;;10.29;79.12;101068.25;4969753;28;20218;-68
2022/11/30 10:02:15;;;;;;;18.47;9.67;;;;;;;10.18;79.68;101064.41;4970728;28;20299;-73
2022/11/30 10:04:42;;;;;;;16.17;8.40;;;;;;;9.96;78.50;101060.28;4971052;28;20198;-70
2022/11/30 10:07:29;;;;;;;15.57;8.37;;;;;;;9.58;78.91;101072.47;4969384;28;20200;-70
2022/11/30 10:10:16;;;;;;;18.67;9.10;;;;;;;9.54;79.98;101072.31;4953695;28;20705;-70
2022/11/30 10:13:03;;;;;;;16.23;8.80;;;;;;;9.39;79.93;101062.22;4969728;28;20253;-69
2022/11/30 10:15:39;;;;;;;18.80;9.17;;;;;;;9.38;80.91;101065.72;4970168;28;20653;-69
2022/11/30 10:18:27;;;;;;;19.27;9.37;;;;;;;9.24;81.18;101067.97;4967856;28;20209;-69
2022/11/30 10:21:15;;;;;;;18.47;9.40;;;;;;;9.16;82.01;101063.28;4970018;28;20314;-67
2022/11/30 10:23:54;;;;;;;18.90;9.83;;;;;;;9.15;82.83;101066.78;4969319;28;20217;-70
2022/11/30 10:26:33;;;;;;;23.60;11.33;;;;;;;9.11;83.20;101064.03;4970073;28;20236;-69
2022/11/30 10:29:38;;;;;;;24.27;11.47;;;;;;;9.11;83.84;101063.16;4969948;28;20193;-66
2022/11/30 10:32:19;;;;;;;19.60;10.60;;;;;;;9.09;83.78;101067.50;4969342;28;20243;-69
2022/11/30 10:34:52;;;;;;;22.60;10.83;;;;;;;9.03;83.69;101056.75;4969967;28;20236;-72
2022/11/30 10:37:33;;;;;;;23.93;10.87;;;;;;;9.03;84.24;101056.75;4970647;28;20710;-74
2022/11/30 10:40:04;;;;;;;26.17;12.97;;;;;;;8.97;84.24;101060.09;4969609;28;20285;-71
2022/11/30 10:42:45;;;;;;;26.50;11.40;;;;;;;8.81;84.50;101049.03;4970851;28;20592;-70
2022/11/30 10:45:23;;;;;;;29.67;11.90;;;;;;;8.73;85.43;101051.41;4968772;28;20202;-71
2022/11/30 10:48:00;;;;;;;26.77;11.57;;;;;;;8.68;85.89;101056.53;4969165;28;20227;-71
2022/11/30 10:50:28;;;;;;;20.63;10.40;;;;;;;8.62;86.19;101058.09;4973177;28;20231;-71
2022/11/30 10:52:58;;;;;;;25.07;12.10;;;;;;;8.64;86.45;101057.28;4967296;28;20226;-73
2022/11/30 10:55:33;;;;;;;23.93;12.07;;;;;;;8.72;86.29;101062.81;4970458;28;20216;-69
2022/11/30 10:58:06;;;;;;;25.53;12.20;;;;;;;8.90;86.06;101047.56;4967939;28;20203;-70
2022/11/30 11:00:33;;;;;;;25.60;12.30;;;;;;;8.94;86.23;101059.13;4994687;23;20228;-64
2022/11/30 11:02:59;;;;;;;27.30;12.40;;;;;;;8.87;86.40;101046.56;5006458;28;20199;-63
2022/11/30 11:05:28;;;;;;;28.47;12.40;;;;;;;8.87;86.58;101054.50;5007398;28;20203;-65
2022/11/30 11:07:58;;;;;;;25.03;12.23;;;;;;;8.89;87.32;101053.69;5005808;28;20286;-64
2022/11/30 11:10:46;;;;;;;22.93;12.30;;;;;;;8.92;87.36;101039.69;5006618;28;20204;-64
2022/11/30 11:13:16;;;;;;;25.00;12.37;;;;;;;9.02;87.37;101050.56;4986738;28;20695;-64
2022/11/30 11:16:00;;;;;;;27.40;12.90;;;;;;;9.03;87.62;101048.81;4987495;28;20204;-64
2022/11/30 11:18:29;;;;;;;29.93;12.27;;;;;;;9.04;87.76;101050.59;4987391;28;20683;-65
2022/11/30 11:21:05;;;;;;;25.87;12.43;;;;;;;9.02;87.28;101044.38;4986855;28;20499;-64
2022/11/30 11:23:38;;;;;;;30.50;12.27;;;;;;;9.02;86.82;101045.28;4987213;28;20750;-64
2022/11/30 11:26:07;;;;;;;28.20;12.70;;;;;;;9.02;86.68;101047.03;4990655;28;20749;-65
2022/11/30 11:28:36;;;;;;;33.53;12.73;;;;;;;9.04;86.49;101037.41;4986569;28;20207;-64
2022/11/30 11:31:29;;;;;;;25.83;11.23;;;;;;;9.12;86.57;101035.88;4981276;28;20703;-65
2022/11/30 11:33:55;;;;;;;26.40;12.27;;;;;;;9.24;86.37;101040.66;4984990;28;20213;-63